Kendall, WI (54638)

7:46 AM CDT on September 04, 2015 (GMT -0500)
Kendall, Wi. | | Change Station
CLOSE
Current Station
Personal Weather Station
Location: Kendall, WI
Elevation: 1021 ft
Nearby Weather Stations

Elev 1021 ft 43.79 °N, 90.37 °W | Updated 2 seconds ago

Mostly Cloudy
Mostly Cloudy
72.7 °F
Feels Like 76 °F
N
2.6
Wind Variable Wind from ESE
Gusts 5.8 mph

Today
High -- | Low -- °F
--% Chance of Precip.
Yesterday
High -- | Low -- °F
Precip. -- in
6:28 AM 7:32 PM
Waning Gibbous, 60% visible
Pressure 30.02 in
Visibility 8.0 miles
Clouds Mostly Cloudy 3000 ft
Heat Index 76 °F
Dew Point 60 °F
Humidity 65%
Rainfall 0.00 in
Snow Depth Not available.
UV 0 out of 12
Pollen 9.80 out of 12
Air Quality Not available.
Flu Activity Not available.
SPECI KVOK 041238Z AUTO 09004KT 8SM BKN030 20/20 A3002 RMK AO2
Pressure 30.02 in
Visibility 8.0 miles
Clouds Mostly Cloudy 3000 ft
Heat Index 76 °F
Dew Point 60 °F
Humidity 65%
Rainfall 0.00 in
Snow Depth Not available.
UV 0 out of 12
Pollen 9.80 out of 12
Air Quality Not available.
Flu Activity Not available.
SPECI KVOK 041238Z AUTO 09004KT 8SM BKN030 20/20 A3002 RMK AO2

10-Day Weather Forecast

×

Almanac

Astronomy

Sep. 04, 2015 Rise Set
Actual Time
Civil Twilight
Nautical Twilight
Astronomical Twilight
Moon
Length of Visible Light
Length of Day
Tomorrow will be .
, % of the Moon is Illuminated

Today's Extremes

State Highs State Lows

Community

WunderPhotos

Upload Photos

1,852,174 photos uploaded!

WunderBlogs® & News

Nearby

Air Quality

  Air Quality AQ Index Pollutant
Not available.

Snow Depth

Station Depth Elevation

Earthquake Activity

City Distance Mag. Time & Date
Minimum magnitude displayed is 2.5.

Coastal Water Temperatures

Place Temperature

Stations

Nearby Weather Stations

Station Location Temp. Windchill Dew Point Humidity Wind Precip. Elev Updated Type